sensor_id;sensor_type;location;lat;lon;timestamp;temperature;humidity
18317;DHT22;9284;52.298;21.164;2023-02-18T00:00:10;7.50;1.00
18317;DHT22;9284;52.298;21.164;2023-02-18T00:02:42;7.50;61.10
18317;DHT22;9284;52.298;21.164;2023-02-18T00:05:11;7.50;1.00
18317;DHT22;9284;52.298;21.164;2023-02-18T00:07:40;7.50;1.00
18317;DHT22;9284;52.298;21.164;2023-02-18T00:10:11;7.50;1.00
18317;DHT22;9284;52.298;21.164;2023-02-18T00:12:40;7.40;1.00
18317;DHT22;9284;52.298;21.164;2023-02-18T00:15:09;7.40;1.00
18317;DHT22;9284;52.298;21.164;2023-02-18T00:17:37;7.40;1.00
18317;DHT22;9284;52.298;21.164;2023-02-18T00:20:07;7.40;1.00
18317;DHT22;9284;52.298;21.164;2023-02-18T00:22:36;7.60;1.00
18317;DHT22;9284;52.298;21.164;2023-02-18T00:25:04;7.60;99.90
18317;DHT22;9284;52.298;21.164;2023-02-18T00:27:33;7.60;99.90
18317;DHT22;9284;52.298;21.164;2023-02-18T00:30:03;7.70;99.90
18317;DHT22;9284;52.298;21.164;2023-02-18T00:32:33;7.80;1.00
18317;DHT22;9284;52.298;21.164;2023-02-18T00:35:02;7.80;99.90
18317;DHT22;9284;52.298;21.164;2023-02-18T00:37:31;7.80;99.90
18317;DHT22;9284;52.298;21.164;2023-02-18T00:40:01;7.80;66.70
18317;DHT22;9284;52.298;21.164;2023-02-18T00:42:29;7.80;1.00
18317;DHT22;9284;52.298;21.164;2023-02-18T00:44:57;7.80;1.00
18317;DHT22;9284;52.298;21.164;2023-02-18T00:47:26;7.80;1.00
18317;DHT22;9284;52.298;21.164;2023-02-18T00:49:54;7.70;99.90
18317;DHT22;9284;52.298;21.164;2023-02-18T00:52:22;7.70;52.20
18317;DHT22;9284;52.298;21.164;2023-02-18T00:54:52;7.60;99.90
18317;DHT22;9284;52.298;21.164;2023-02-18T00:57:20;7.60;99.90
18317;DHT22;9284;52.298;21.164;2023-02-18T00:59:48;7.60;1.00
18317;DHT22;9284;52.298;21.164;2023-02-18T01:02:16;7.60;1.00
18317;DHT22;9284;52.298;21.164;2023-02-18T01:04:44;7.60;1.00
18317;DHT22;9284;52.298;21.164;2023-02-18T01:07:13;7.50;1.00
18317;DHT22;9284;52.298;21.164;2023-02-18T01:09:41;7.50;99.90
18317;DHT22;9284;52.298;21.164;2023-02-18T01:12:11;7.50;99.90
18317;DHT22;9284;52.298;21.164;2023-02-18T01:14:39;7.50;50.40
18317;DHT22;9284;52.298;21.164;2023-02-18T01:17:08;7.50;91.30
18317;DHT22;9284;52.298;21.164;2023-02-18T01:19:38;7.50;1.00
18317;DHT22;9284;52.298;21.164;2023-02-18T01:22:06;7.50;1.00
18317;DHT22;9284;52.298;21.164;2023-02-18T01:24:35;7.50;1.00
18317;DHT22;9284;52.298;21.164;2023-02-18T01:27:04;7.40;1.00
18317;DHT22;9284;52.298;21.164;2023-02-18T01:29:35;7.50;1.00
18317;DHT22;9284;52.298;21.164;2023-02-18T01:32:03;7.40;1.00
18317;DHT22;9284;52.298;21.164;2023-02-18T01:34:31;7.40;1.00
18317;DHT22;9284;52.298;21.164;2023-02-18T01:37:00;7.30;1.00
18317;DHT22;9284;52.298;21.164;2023-02-18T01:39:28;7.20;1.00
18317;DHT22;9284;52.298;21.164;2023-02-18T01:41:56;7.20;1.00
18317;DHT22;9284;52.298;21.164;2023-02-18T01:44:26;7.20;1.00
18317;DHT22;9284;52.298;21.164;2023-02-18T01:46:56;7.30;1.00
18317;DHT22;9284;52.298;21.164;2023-02-18T01:49:26;7.30;1.00
18317;DHT22;9284;52.298;21.164;2023-02-18T01:51:59;7.30;1.00
18317;DHT22;9284;52.298;21.164;2023-02-18T01:54:32;7.30;1.00
18317;DHT22;9284;52.298;21.164;2023-02-18T01:57:04;7.30;1.00
18317;DHT22;9284;52.298;21.164;2023-02-18T01:59:37;7.30;1.00
18317;DHT22;9284;52.298;21.164;2023-02-18T02:02:10;7.20;1.00
18317;DHT22;9284;52.298;21.164;2023-02-18T02:04:40;7.30;1.00
18317;DHT22;9284;52.298;21.164;2023-02-18T02:07:09;7.30;1.00
18317;DHT22;9284;52.298;21.164;2023-02-18T02:09:38;7.30;1.00
18317;DHT22;9284;52.298;21.164;2023-02-18T02:12:32;7.30;1.00
18317;DHT22;9284;52.298;21.164;2023-02-18T02:15:31;7.20;1.00
18317;DHT22;9284;52.298;21.164;2023-02-18T02:21:38;7.20;1.00
18317;DHT22;9284;52.298;21.164;2023-02-18T02:27:25;7.20;1.00
18317;DHT22;9284;52.298;21.164;2023-02-18T02:30:16;7.20;99.90
18317;DHT22;9284;52.298;21.164;2023-02-18T02:33:10;7.10;1.00
18317;DHT22;9284;52.298;21.164;2023-02-18T02:35:49;7.10;1.00
18317;DHT22;9284;52.298;21.164;2023-02-18T02:38:26;7.10;99.90
18317;DHT22;9284;52.298;21.164;2023-02-18T02:41:07;7.00;1.00
18317;DHT22;9284;52.298;21.164;2023-02-18T02:43:45;7.00;99.90
18317;DHT22;9284;52.298;21.164;2023-02-18T02:46:20;7.00;99.90
18317;DHT22;9284;52.298;21.164;2023-02-18T02:48:57;7.00;99.90
18317;DHT22;9284;52.298;21.164;2023-02-18T02:51:29;7.00;99.90
18317;DHT22;9284;52.298;21.164;2023-02-18T02:54:09;7.00;99.90
18317;DHT22;9284;52.298;21.164;2023-02-18T02:56:38;7.00;99.90
18317;DHT22;9284;52.298;21.164;2023-02-18T02:59:12;7.00;99.90
18317;DHT22;9284;52.298;21.164;2023-02-18T03:01:52;7.00;99.90
18317;DHT22;9284;52.298;21.164;2023-02-18T03:04:39;7.00;99.90
18317;DHT22;9284;52.298;21.164;2023-02-18T03:10:25;6.90;99.90
18317;DHT22;9284;52.298;21.164;2023-02-18T03:13:03;6.90;99.90
18317;DHT22;9284;52.298;21.164;2023-02-18T03:15:38;6.90;99.90
18317;DHT22;9284;52.298;21.164;2023-02-18T03:18:16;6.80;99.90
18317;DHT22;9284;52.298;21.164;2023-02-18T03:20:52;6.80;99.90
18317;DHT22;9284;52.298;21.164;2023-02-18T03:23:27;6.80;99.90
18317;DHT22;9284;52.298;21.164;2023-02-18T03:25:57;6.80;99.90
18317;DHT22;9284;52.298;21.164;2023-02-18T03:28:29;6.90;99.90
18317;DHT22;9284;52.298;21.164;2023-02-18T03:31:04;6.90;99.90
18317;DHT22;9284;52.298;21.164;2023-02-18T03:33:36;6.80;99.90
18317;DHT22;9284;52.298;21.164;2023-02-18T03:36:08;6.80;99.90
18317;DHT22;9284;52.298;21.164;2023-02-18T03:38:43;6.70;99.90
18317;DHT22;9284;52.298;21.164;2023-02-18T03:41:13;6.70;99.90
18317;DHT22;9284;52.298;21.164;2023-02-18T03:43:48;6.60;99.90
18317;DHT22;9284;52.298;21.164;2023-02-18T03:49:05;6.60;99.90
18317;DHT22;9284;52.298;21.164;2023-02-18T03:51:35;6.60;99.90
18317;DHT22;9284;52.298;21.164;2023-02-18T03:54:04;6.60;99.90
18317;DHT22;9284;52.298;21.164;2023-02-18T03:56:33;6.60;99.90
18317;DHT22;9284;52.298;21.164;2023-02-18T03:59:02;6.60;99.90
18317;DHT22;9284;52.298;21.164;2023-02-18T04:01:31;6.60;99.90
18317;DHT22;9284;52.298;21.164;2023-02-18T04:03:59;6.60;99.90
18317;DHT22;9284;52.298;21.164;2023-02-18T04:06:29;6.60;99.90
18317;DHT22;9284;52.298;21.164;2023-02-18T04:08:57;6.60;99.90
18317;DHT22;9284;52.298;21.164;2023-02-18T04:11:26;6.60;99.90
18317;DHT22;9284;52.298;21.164;2023-02-18T04:13:55;6.50;99.90
18317;DHT22;9284;52.298;21.164;2023-02-18T04:16:23;6.50;99.90
18317;DHT22;9284;52.298;21.164;2023-02-18T04:18:51;6.50;99.90
18317;DHT22;9284;52.298;21.164;2023-02-18T04:21:19;6.40;99.90
18317;DHT22;9284;52.298;21.164;2023-02-18T04:23:48;6.40;99.90
18317;DHT22;9284;52.298;21.164;2023-02-18T04:26:16;6.40;99.90
18317;DHT22;9284;52.298;21.164;2023-02-18T04:28:46;6.40;99.90
18317;DHT22;9284;52.298;21.164;2023-02-18T04:31:14;6.40;99.90
18317;DHT22;9284;52.298;21.164;2023-02-18T04:33:42;6.40;99.90
18317;DHT22;9284;52.298;21.164;2023-02-18T04:36:11;6.30;99.90
18317;DHT22;9284;52.298;21.164;2023-02-18T04:38:39;6.30;99.90
18317;DHT22;9284;52.298;21.164;2023-02-18T04:41:09;6.20;99.90
18317;DHT22;9284;52.298;21.164;2023-02-18T04:43:38;6.20;99.90
18317;DHT22;9284;52.298;21.164;2023-02-18T04:46:08;6.20;99.90
18317;DHT22;9284;52.298;21.164;2023-02-18T04:48:37;6.20;99.90
18317;DHT22;9284;52.298;21.164;2023-02-18T04:51:05;6.20;99.90
18317;DHT22;9284;52.298;21.164;2023-02-18T04:53:34;6.30;99.90
18317;DHT22;9284;52.298;21.164;2023-02-18T04:56:02;6.30;99.90
18317;DHT22;9284;52.298;21.164;2023-02-18T04:58:31;6.30;99.90
18317;DHT22;9284;52.298;21.164;2023-02-18T05:00:59;6.20;1.00
18317;DHT22;9284;52.298;21.164;2023-02-18T05:03:30;6.20;1.00
18317;DHT22;9284;52.298;21.164;2023-02-18T05:05:58;6.20;1.00
18317;DHT22;9284;52.298;21.164;2023-02-18T05:08:26;6.20;99.90
18317;DHT22;9284;52.298;21.164;2023-02-18T05:10:54;6.20;1.00
18317;DHT22;9284;52.298;21.164;2023-02-18T05:13:23;6.20;1.00
18317;DHT22;9284;52.298;21.164;2023-02-18T05:15:51;6.20;1.00
18317;DHT22;9284;52.298;21.164;2023-02-18T05:18:20;6.20;1.00
18317;DHT22;9284;52.298;21.164;2023-02-18T05:20:49;6.20;1.00
18317;DHT22;9284;52.298;21.164;2023-02-18T05:23:17;6.20;1.00
18317;DHT22;9284;52.298;21.164;2023-02-18T05:25:47;6.10;1.00
18317;DHT22;9284;52.298;21.164;2023-02-18T05:28:15;6.10;1.00
18317;DHT22;9284;52.298;21.164;2023-02-18T05:30:44;6.10;1.00
18317;DHT22;9284;52.298;21.164;2023-02-18T05:33:12;6.10;1.00
18317;DHT22;9284;52.298;21.164;2023-02-18T05:35:40;6.10;1.00
18317;DHT22;9284;52.298;21.164;2023-02-18T05:38:10;6.10;1.00
18317;DHT22;9284;52.298;21.164;2023-02-18T05:40:38;6.10;1.00
18317;DHT22;9284;52.298;21.164;2023-02-18T05:43:06;6.10;1.00
18317;DHT22;9284;52.298;21.164;2023-02-18T05:45:35;6.10;1.00
18317;DHT22;9284;52.298;21.164;2023-02-18T05:48:04;6.10;1.00
18317;DHT22;9284;52.298;21.164;2023-02-18T05:50:32;6.10;1.00
18317;DHT22;9284;52.298;21.164;2023-02-18T05:53:01;6.00;1.00
18317;DHT22;9284;52.298;21.164;2023-02-18T05:55:30;6.00;1.00
18317;DHT22;9284;52.298;21.164;2023-02-18T05:57:59;6.00;1.00
18317;DHT22;9284;52.298;21.164;2023-02-18T06:00:27;6.00;1.00
18317;DHT22;9284;52.298;21.164;2023-02-18T06:02:56;6.00;1.00
18317;DHT22;9284;52.298;21.164;2023-02-18T06:05:25;6.00;1.00
18317;DHT22;9284;52.298;21.164;2023-02-18T06:07:53;6.00;1.00
18317;DHT22;9284;52.298;21.164;2023-02-18T06:10:22;6.00;1.00
18317;DHT22;9284;52.298;21.164;2023-02-18T06:12:52;6.00;1.00
18317;DHT22;9284;52.298;21.164;2023-02-18T06:15:20;6.00;1.00
18317;DHT22;9284;52.298;21.164;2023-02-18T06:17:48;6.00;1.00
18317;DHT22;9284;52.298;21.164;2023-02-18T06:20:17;6.00;1.00
18317;DHT22;9284;52.298;21.164;2023-02-18T06:22:45;6.10;1.00
18317;DHT22;9284;52.298;21.164;2023-02-18T06:25:13;6.10;99.90
18317;DHT22;9284;52.298;21.164;2023-02-18T06:27:42;6.10;99.90
18317;DHT22;9284;52.298;21.164;2023-02-18T06:30:12;6.10;99.90
18317;DHT22;9284;52.298;21.164;2023-02-18T06:32:41;6.10;99.90
18317;DHT22;9284;52.298;21.164;2023-02-18T06:35:09;6.10;99.90
18317;DHT22;9284;52.298;21.164;2023-02-18T06:37:37;6.20;99.90
18317;DHT22;9284;52.298;21.164;2023-02-18T06:40:08;6.10;99.90
18317;DHT22;9284;52.298;21.164;2023-02-18T06:42:36;6.10;99.90
18317;DHT22;9284;52.298;21.164;2023-02-18T06:45:05;6.20;99.90
18317;DHT22;9284;52.298;21.164;2023-02-18T06:47:35;6.20;99.90
18317;DHT22;9284;52.298;21.164;2023-02-18T06:50:04;6.20;99.90
18317;DHT22;9284;52.298;21.164;2023-02-18T06:52:32;6.20;99.90
18317;DHT22;9284;52.298;21.164;2023-02-18T06:55:01;6.20;99.90
18317;DHT22;9284;52.298;21.164;2023-02-18T06:57:29;6.20;99.90
18317;DHT22;9284;52.298;21.164;2023-02-18T06:59:57;6.20;99.90
18317;DHT22;9284;52.298;21.164;2023-02-18T07:02:25;6.20;99.90
18317;DHT22;9284;52.298;21.164;2023-02-18T07:04:55;6.20;99.90
18317;DHT22;9284;52.298;21.164;2023-02-18T07:07:23;6.30;99.90
18317;DHT22;9284;52.298;21.164;2023-02-18T07:09:52;6.30;99.90
18317;DHT22;9284;52.298;21.164;2023-02-18T07:12:20;6.20;99.90
18317;DHT22;9284;52.298;21.164;2023-02-18T07:14:48;6.30;99.90
18317;DHT22;9284;52.298;21.164;2023-02-18T07:17:16;6.30;99.90
18317;DHT22;9284;52.298;21.164;2023-02-18T07:19:45;6.30;99.90
18317;DHT22;9284;52.298;21.164;2023-02-18T07:22:14;6.30;99.90
18317;DHT22;9284;52.298;21.164;2023-02-18T07:24:43;6.30;99.90
18317;DHT22;9284;52.298;21.164;2023-02-18T07:27:11;6.40;99.90
18317;DHT22;9284;52.298;21.164;2023-02-18T07:29:39;6.40;99.90
18317;DHT22;9284;52.298;21.164;2023-02-18T07:32:08;6.40;99.90
18317;DHT22;9284;52.298;21.164;2023-02-18T07:34:37;6.40;99.90
18317;DHT22;9284;52.298;21.164;2023-02-18T07:37:05;6.40;99.90
18317;DHT22;9284;52.298;21.164;2023-02-18T07:39:39;6.40;99.90
18317;DHT22;9284;52.298;21.164;2023-02-18T07:42:08;6.50;99.90
18317;DHT22;9284;52.298;21.164;2023-02-18T07:44:37;6.50;99.90
18317;DHT22;9284;52.298;21.164;2023-02-18T07:47:07;6.50;99.90
18317;DHT22;9284;52.298;21.164;2023-02-18T07:49:35;6.50;99.90
18317;DHT22;9284;52.298;21.164;2023-02-18T07:52:04;6.50;99.90
18317;DHT22;9284;52.298;21.164;2023-02-18T07:54:32;6.50;99.90
18317;DHT22;9284;52.298;21.164;2023-02-18T07:57:02;6.60;99.90
18317;DHT22;9284;52.298;21.164;2023-02-18T07:59:30;6.60;99.90
18317;DHT22;9284;52.298;21.164;2023-02-18T08:01:58;6.60;99.90
18317;DHT22;9284;52.298;21.164;2023-02-18T08:04:26;6.70;99.90
18317;DHT22;9284;52.298;21.164;2023-02-18T08:06:55;6.60;99.90
18317;DHT22;9284;52.298;21.164;2023-02-18T08:09:23;6.70;99.90
18317;DHT22;9284;52.298;21.164;2023-02-18T08:11:51;6.70;99.90
18317;DHT22;9284;52.298;21.164;2023-02-18T08:14:21;6.80;99.90
18317;DHT22;9284;52.298;21.164;2023-02-18T08:16:49;6.70;99.90
18317;DHT22;9284;52.298;21.164;2023-02-18T08:19:19;6.70;99.90
18317;DHT22;9284;52.298;21.164;2023-02-18T08:21:47;6.80;99.90
18317;DHT22;9284;52.298;21.164;2023-02-18T08:24:15;6.80;99.90
18317;DHT22;9284;52.298;21.164;2023-02-18T08:26:43;6.90;99.90
18317;DHT22;9284;52.298;21.164;2023-02-18T08:29:28;6.90;99.90
18317;DHT22;9284;52.298;21.164;2023-02-18T08:31:56;6.90;99.90
18317;DHT22;9284;52.298;21.164;2023-02-18T08:34:25;6.90;99.90
18317;DHT22;9284;52.298;21.164;2023-02-18T08:36:54;7.00;99.90
18317;DHT22;9284;52.298;21.164;2023-02-18T08:39:22;7.00;99.90
18317;DHT22;9284;52.298;21.164;2023-02-18T08:41:50;7.00;99.90
18317;DHT22;9284;52.298;21.164;2023-02-18T08:44:18;7.10;99.90
18317;DHT22;9284;52.298;21.164;2023-02-18T08:46:48;7.10;99.90
18317;DHT22;9284;52.298;21.164;2023-02-18T08:49:16;7.10;99.90
18317;DHT22;9284;52.298;21.164;2023-02-18T08:51:46;7.10;99.90
18317;DHT22;9284;52.298;21.164;2023-02-18T08:54:15;7.10;99.90
18317;DHT22;9284;52.298;21.164;2023-02-18T08:56:43;7.20;99.90
18317;DHT22;9284;52.298;21.164;2023-02-18T08:59:11;7.20;99.90
18317;DHT22;9284;52.298;21.164;2023-02-18T09:01:40;7.10;99.90
18317;DHT22;9284;52.298;21.164;2023-02-18T09:04:09;7.20;99.90
18317;DHT22;9284;52.298;21.164;2023-02-18T09:06:38;7.30;99.90
18317;DHT22;9284;52.298;21.164;2023-02-18T09:09:06;7.30;99.90
18317;DHT22;9284;52.298;21.164;2023-02-18T09:11:35;7.40;99.90
18317;DHT22;9284;52.298;21.164;2023-02-18T09:14:03;7.40;99.90
18317;DHT22;9284;52.298;21.164;2023-02-18T09:16:32;7.30;99.90
18317;DHT22;9284;52.298;21.164;2023-02-18T09:19:01;7.30;99.90
18317;DHT22;9284;52.298;21.164;2023-02-18T09:21:31;7.30;99.90
18317;DHT22;9284;52.298;21.164;2023-02-18T09:24:00;7.40;99.90
18317;DHT22;9284;52.298;21.164;2023-02-18T09:26:28;7.50;99.90
18317;DHT22;9284;52.298;21.164;2023-02-18T09:28:57;7.60;99.90
18317;DHT22;9284;52.298;21.164;2023-02-18T09:31:26;7.60;99.90
18317;DHT22;9284;52.298;21.164;2023-02-18T09:33:57;7.60;99.90
18317;DHT22;9284;52.298;21.164;2023-02-18T09:36:27;7.60;99.90
18317;DHT22;9284;52.298;21.164;2023-02-18T09:38:57;7.60;99.90
18317;DHT22;9284;52.298;21.164;2023-02-18T09:41:31;7.60;99.90
18317;DHT22;9284;52.298;21.164;2023-02-18T09:44:05;7.50;99.90
18317;DHT22;9284;52.298;21.164;2023-02-18T09:46:38;7.30;99.90
18317;DHT22;9284;52.298;21.164;2023-02-18T09:49:14;7.30;99.90
18317;DHT22;9284;52.298;21.164;2023-02-18T09:51:43;7.30;99.90
18317;DHT22;9284;52.298;21.164;2023-02-18T09:54:16;7.30;99.90
18317;DHT22;9284;52.298;21.164;2023-02-18T09:56:45;7.40;99.90
18317;DHT22;9284;52.298;21.164;2023-02-18T09:59:17;7.30;99.90
18317;DHT22;9284;52.298;21.164;2023-02-18T10:01:47;7.40;99.90
18317;DHT22;9284;52.298;21.164;2023-02-18T10:04:20;7.50;99.90
18317;DHT22;9284;52.298;21.164;2023-02-18T10:06:50;7.50;99.90
18317;DHT22;9284;52.298;21.164;2023-02-18T10:09:26;7.40;99.90
18317;DHT22;9284;52.298;21.164;2023-02-18T10:11:59;7.40;99.90
18317;DHT22;9284;52.298;21.164;2023-02-18T10:14:29;7.60;99.90
18317;DHT22;9284;52.298;21.164;2023-02-18T10:16:58;7.70;99.90
18317;DHT22;9284;52.298;21.164;2023-02-18T10:19:30;7.80;99.90
18317;DHT22;9284;52.298;21.164;2023-02-18T10:22:01;7.80;99.90
18317;DHT22;9284;52.298;21.164;2023-02-18T10:24:43;7.80;99.90
18317;DHT22;9284;52.298;21.164;2023-02-18T10:27:18;7.90;99.90
18317;DHT22;9284;52.298;21.164;2023-02-18T10:29:48;7.80;99.90
18317;DHT22;9284;52.298;21.164;2023-02-18T10:32:20;7.70;99.90
18317;DHT22;9284;52.298;21.164;2023-02-18T10:34:53;7.70;99.90
18317;DHT22;9284;52.298;21.164;2023-02-18T11:23:18;7.90;99.90
18317;DHT22;9284;52.298;21.164;2023-02-18T11:25:59;8.00;99.90
18317;DHT22;9284;52.298;21.164;2023-02-18T11:28:41;8.10;99.90
18317;DHT22;9284;52.298;21.164;2023-02-18T11:31:16;8.00;99.90
18317;DHT22;9284;52.298;21.164;2023-02-18T11:33:48;7.90;99.90
18317;DHT22;9284;52.298;21.164;2023-02-18T11:36:21;7.80;99.90
18317;DHT22;9284;52.298;21.164;2023-02-18T11:38:54;7.70;99.90
18317;DHT22;9284;52.298;21.164;2023-02-18T11:56:07;7.80;99.90
18317;DHT22;9284;52.298;21.164;2023-02-18T11:58:45;8.00;99.90
18317;DHT22;9284;52.298;21.164;2023-02-18T12:01:20;8.20;99.90
18317;DHT22;9284;52.298;21.164;2023-02-18T12:03:58;8.20;99.90
18317;DHT22;9284;52.298;21.164;2023-02-18T12:06:31;8.00;99.90
18317;DHT22;9284;52.298;21.164;2023-02-18T12:09:04;7.90;99.90
18317;DHT22;9284;52.298;21.164;2023-02-18T12:11:37;7.90;99.90
18317;DHT22;9284;52.298;21.164;2023-02-18T12:14:13;7.80;99.90
18317;DHT22;9284;52.298;21.164;2023-02-18T12:16:56;7.70;99.90
18317;DHT22;9284;52.298;21.164;2023-02-18T12:19:57;7.70;99.90
18317;DHT22;9284;52.298;21.164;2023-02-18T12:22:35;7.70;99.90
18317;DHT22;9284;52.298;21.164;2023-02-18T12:25:24;7.60;99.90
18317;DHT22;9284;52.298;21.164;2023-02-18T12:28:02;7.60;99.90
18317;DHT22;9284;52.298;21.164;2023-02-18T12:33:44;7.60;99.90
18317;DHT22;9284;52.298;21.164;2023-02-18T12:36:21;7.50;99.90
18317;DHT22;9284;52.298;21.164;2023-02-18T12:39:00;7.50;99.90
18317;DHT22;9284;52.298;21.164;2023-02-18T12:41:46;7.60;99.90
18317;DHT22;9284;52.298;21.164;2023-02-18T12:44:31;7.60;99.90
18317;DHT22;9284;52.298;21.164;2023-02-18T12:50:15;7.40;99.90
18317;DHT22;9284;52.298;21.164;2023-02-18T12:52:56;7.40;99.90
18317;DHT22;9284;52.298;21.164;2023-02-18T12:55:40;7.40;99.90
18317;DHT22;9284;52.298;21.164;2023-02-18T12:58:19;7.40;99.90
18317;DHT22;9284;52.298;21.164;2023-02-18T13:01:06;7.50;99.90
18317;DHT22;9284;52.298;21.164;2023-02-18T13:04:04;7.60;99.90
18317;DHT22;9284;52.298;21.164;2023-02-18T13:09:39;7.70;99.90
18317;DHT22;9284;52.298;21.164;2023-02-18T13:12:16;7.70;99.90
18317;DHT22;9284;52.298;21.164;2023-02-18T13:14:50;7.70;99.90
18317;DHT22;9284;52.298;21.164;2023-02-18T13:17:27;7.70;99.90
18317;DHT22;9284;52.298;21.164;2023-02-18T13:20:00;7.70;99.90
18317;DHT22;9284;52.298;21.164;2023-02-18T13:22:30;7.80;99.90
18317;DHT22;9284;52.298;21.164;2023-02-18T13:24:59;7.90;99.90
18317;DHT22;9284;52.298;21.164;2023-02-18T13:27:36;7.80;99.90
18317;DHT22;9284;52.298;21.164;2023-02-18T13:30:18;7.90;99.90
18317;DHT22;9284;52.298;21.164;2023-02-18T13:33:08;7.90;99.90
18317;DHT22;9284;52.298;21.164;2023-02-18T13:35:43;7.90;99.90
18317;DHT22;9284;52.298;21.164;2023-02-18T13:38:28;7.80;99.90
18317;DHT22;9284;52.298;21.164;2023-02-18T13:41:01;7.70;99.90
18317;DHT22;9284;52.298;21.164;2023-02-18T13:43:30;7.70;99.90
18317;DHT22;9284;52.298;21.164;2023-02-18T13:46:07;7.60;99.90
18317;DHT22;9284;52.298;21.164;2023-02-18T13:48:41;7.60;99.90
18317;DHT22;9284;52.298;21.164;2023-02-18T13:51:12;7.50;99.90
18317;DHT22;9284;52.298;21.164;2023-02-18T13:53:42;7.60;99.90
18317;DHT22;9284;52.298;21.164;2023-02-18T13:56:20;7.50;99.90
18317;DHT22;9284;52.298;21.164;2023-02-18T13:58:50;7.50;99.90
18317;DHT22;9284;52.298;21.164;2023-02-18T14:01:21;7.50;99.90
18317;DHT22;9284;52.298;21.164;2023-02-18T14:03:55;7.50;99.90
18317;DHT22;9284;52.298;21.164;2023-02-18T14:06:25;7.50;99.90
18317;DHT22;9284;52.298;21.164;2023-02-18T14:09:34;7.50;99.90
18317;DHT22;9284;52.298;21.164;2023-02-18T14:12:23;7.50;99.90
18317;DHT22;9284;52.298;21.164;2023-02-18T14:14:52;7.40;99.90
18317;DHT22;9284;52.298;21.164;2023-02-18T14:17:33;7.40;99.90
18317;DHT22;9284;52.298;21.164;2023-02-18T14:20:44;7.40;99.90
18317;DHT22;9284;52.298;21.164;2023-02-18T14:23:40;7.40;99.90
18317;DHT22;9284;52.298;21.164;2023-02-18T14:26:17;7.30;99.90
18317;DHT22;9284;52.298;21.164;2023-02-18T14:28:54;7.20;99.90
18317;DHT22;9284;52.298;21.164;2023-02-18T14:31:29;7.20;99.90
18317;DHT22;9284;52.298;21.164;2023-02-18T14:36:56;7.10;99.90
18317;DHT22;9284;52.298;21.164;2023-02-18T14:39:37;7.10;99.90
18317;DHT22;9284;52.298;21.164;2023-02-18T14:42:15;7.10;99.90
18317;DHT22;9284;52.298;21.164;2023-02-18T14:45:04;7.00;99.90
18317;DHT22;9284;52.298;21.164;2023-02-18T14:47:44;7.10;99.90
18317;DHT22;9284;52.298;21.164;2023-02-18T14:50:16;7.00;99.90
18317;DHT22;9284;52.298;21.164;2023-02-18T14:52:48;7.00;99.90
18317;DHT22;9284;52.298;21.164;2023-02-18T14:55:21;6.90;99.90
18317;DHT22;9284;52.298;21.164;2023-02-18T14:57:53;6.80;99.90
18317;DHT22;9284;52.298;21.164;2023-02-18T15:00:24;6.70;99.90
18317;DHT22;9284;52.298;21.164;2023-02-18T15:02:54;6.60;99.90
18317;DHT22;9284;52.298;21.164;2023-02-18T15:05:24;6.60;99.90
18317;DHT22;9284;52.298;21.164;2023-02-18T15:07:59;6.60;99.90
18317;DHT22;9284;52.298;21.164;2023-02-18T15:10:35;6.50;1.00
18317;DHT22;9284;52.298;21.164;2023-02-18T15:13:07;6.40;1.00
18317;DHT22;9284;52.298;21.164;2023-02-18T15:15:36;6.30;24.60
18317;DHT22;9284;52.298;21.164;2023-02-18T15:18:05;6.20;99.90
18317;DHT22;9284;52.298;21.164;2023-02-18T15:20:44;6.00;1.00
18317;DHT22;9284;52.298;21.164;2023-02-18T15:23:15;5.70;99.90
18317;DHT22;9284;52.298;21.164;2023-02-18T15:25:48;5.50;99.90
18317;DHT22;9284;52.298;21.164;2023-02-18T15:28:26;5.30;1.00
18317;DHT22;9284;52.298;21.164;2023-02-18T15:30:56;5.10;99.90
18317;DHT22;9284;52.298;21.164;2023-02-18T15:33:25;4.90;99.90
18317;DHT22;9284;52.298;21.164;2023-02-18T15:36:00;4.80;99.90
18317;DHT22;9284;52.298;21.164;2023-02-18T15:38:30;4.70;1.00
18317;DHT22;9284;52.298;21.164;2023-02-18T15:40:59;4.60;1.00
18317;DHT22;9284;52.298;21.164;2023-02-18T15:43:28;4.50;1.00
18317;DHT22;9284;52.298;21.164;2023-02-18T15:45:58;4.50;99.90
18317;DHT22;9284;52.298;21.164;2023-02-18T15:48:31;4.50;1.00
18317;DHT22;9284;52.298;21.164;2023-02-18T15:51:04;4.40;1.00
18317;DHT22;9284;52.298;21.164;2023-02-18T15:53:47;4.40;1.00
18317;DHT22;9284;52.298;21.164;2023-02-18T15:56:20;4.40;99.90
18317;DHT22;9284;52.298;21.164;2023-02-18T15:59:00;4.30;99.90
18317;DHT22;9284;52.298;21.164;2023-02-18T16:01:34;4.30;1.00
18317;DHT22;9284;52.298;21.164;2023-02-18T16:04:05;4.20;1.00
18317;DHT22;9284;52.298;21.164;2023-02-18T16:06:37;4.20;1.00
18317;DHT22;9284;52.298;21.164;2023-02-18T16:09:13;4.20;20.90
18317;DHT22;9284;52.298;21.164;2023-02-18T16:11:45;4.20;99.90
18317;DHT22;9284;52.298;21.164;2023-02-18T16:14:27;4.20;99.90
18317;DHT22;9284;52.298;21.164;2023-02-18T16:17:06;4.10;99.90
18317;DHT22;9284;52.298;21.164;2023-02-18T16:19:42;4.00;1.00
18317;DHT22;9284;52.298;21.164;2023-02-18T16:22:34;4.10;1.00
18317;DHT22;9284;52.298;21.164;2023-02-18T16:25:15;4.00;1.00
18317;DHT22;9284;52.298;21.164;2023-02-18T16:27:50;4.00;1.00
18317;DHT22;9284;52.298;21.164;2023-02-18T16:30:21;3.90;1.00
18317;DHT22;9284;52.298;21.164;2023-02-18T16:32:50;3.90;99.90
18317;DHT22;9284;52.298;21.164;2023-02-18T16:35:19;3.90;99.90
18317;DHT22;9284;52.298;21.164;2023-02-18T16:37:47;3.90;99.90
18317;DHT22;9284;52.298;21.164;2023-02-18T16:40:27;3.90;99.90
18317;DHT22;9284;52.298;21.164;2023-02-18T16:42:57;3.90;99.90
18317;DHT22;9284;52.298;21.164;2023-02-18T16:45:37;3.80;1.00
18317;DHT22;9284;52.298;21.164;2023-02-18T16:48:14;3.80;1.00
18317;DHT22;9284;52.298;21.164;2023-02-18T16:50:44;3.70;1.00
18317;DHT22;9284;52.298;21.164;2023-02-18T16:53:12;3.60;1.00
18317;DHT22;9284;52.298;21.164;2023-02-18T16:55:42;3.60;1.00
18317;DHT22;9284;52.298;21.164;2023-02-18T16:58:10;3.60;1.00
18317;DHT22;9284;52.298;21.164;2023-02-18T17:00:39;3.50;1.00
18317;DHT22;9284;52.298;21.164;2023-02-18T17:03:08;3.50;1.00
18317;DHT22;9284;52.298;21.164;2023-02-18T17:05:37;3.40;1.00
18317;DHT22;9284;52.298;21.164;2023-02-18T17:08:14;3.40;1.00
18317;DHT22;9284;52.298;21.164;2023-02-18T17:10:46;3.40;1.00
18317;DHT22;9284;52.298;21.164;2023-02-18T17:13:15;3.40;30.70
18317;DHT22;9284;52.298;21.164;2023-02-18T17:15:45;3.40;58.80
18317;DHT22;9284;52.298;21.164;2023-02-18T17:18:14;3.40;95.90
18317;DHT22;9284;52.298;21.164;2023-02-18T17:20:42;3.40;99.90
18317;DHT22;9284;52.298;21.164;2023-02-18T17:23:13;3.30;99.90
18317;DHT22;9284;52.298;21.164;2023-02-18T17:25:42;3.30;99.90
18317;DHT22;9284;52.298;21.164;2023-02-18T17:28:13;3.30;99.90
18317;DHT22;9284;52.298;21.164;2023-02-18T17:30:46;3.30;99.90
18317;DHT22;9284;52.298;21.164;2023-02-18T17:33:17;3.30;99.90
18317;DHT22;9284;52.298;21.164;2023-02-18T17:35:45;3.20;99.90
18317;DHT22;9284;52.298;21.164;2023-02-18T17:38:15;3.30;99.90
18317;DHT22;9284;52.298;21.164;2023-02-18T17:40:44;3.30;99.90
18317;DHT22;9284;52.298;21.164;2023-02-18T17:43:17;3.30;99.90
18317;DHT22;9284;52.298;21.164;2023-02-18T17:45:48;3.40;99.90